Time;durP1;ratioP1;P1;durP2;ratioP2;P2;SDS_P1;SDS_P2;PMS_P1;PMS_P2;Temp;Humidity;BMP_temperature;BMP_pressure;BME280_temperature;BME280_humidity;BME280_pressure;Samples;Min_cycle;Max_cycle;Signal;HPM_P1;HPM_P2
2021/03/06 00:00:12;;;;;;;15.00;11.30;;;0.50;99.90;;;;;;4936994;29;20216;-84
2021/03/06 00:02:39;;;;;;;15.52;11.50;;;0.50;99.90;;;;;;4945501;29;20319;-84
2021/03/06 00:05:07;;;;;;;12.90;10.00;;;0.50;99.90;;;;;;4945265;29;20184;-83
2021/03/06 00:07:34;;;;;;;17.02;10.35;;;0.50;99.90;;;;;;4944437;29;20299;-82
2021/03/06 00:10:01;;;;;;;16.65;11.20;;;0.50;99.90;;;;;;4944097;29;20215;-81
2021/03/06 00:12:28;;;;;;;17.75;10.70;;;0.50;99.90;;;;;;4944695;29;20247;-82
2021/03/06 00:14:54;;;;;;;18.80;11.40;;;0.50;99.90;;;;;;4945650;29;20275;-85
2021/03/06 00:17:20;;;;;;;17.75;11.70;;;0.50;99.90;;;;;;4944924;29;20319;-82
2021/03/06 00:19:47;;;;;;;18.88;12.32;;;0.50;99.90;;;;;;4943948;29;20256;-82
2021/03/06 00:22:13;;;;;;;15.32;12.60;;;0.50;99.90;;;;;;4944639;29;20228;-85
2021/03/06 00:24:40;;;;;;;25.40;12.07;;;0.40;99.90;;;;;;4935515;29;20319;-83
2021/03/06 00:27:06;;;;;;;18.67;12.00;;;0.40;99.90;;;;;;4943470;29;20232;-82
2021/03/06 00:29:33;;;;;;;14.70;11.75;;;0.40;99.90;;;;;;4928566;29;20230;-83
2021/03/06 00:31:59;;;;;;;14.50;10.77;;;0.40;99.90;;;;;;4944547;29;20224;-83
2021/03/06 00:34:26;;;;;;;14.00;10.60;;;0.50;99.90;;;;;;4945482;29;20181;-83
2021/03/06 00:36:53;;;;;;;11.90;10.45;;;0.50;99.90;;;;;;4928601;29;20288;-82
2021/03/06 00:39:19;;;;;;;15.02;11.20;;;0.50;99.90;;;;;;4942658;29;20219;-81
2021/03/06 00:41:45;;;;;;;14.32;10.15;;;0.30;99.90;;;;;;4930474;29;20292;-83
2021/03/06 00:44:12;;;;;;;14.38;9.88;;;0.30;99.90;;;;;;4925097;29;20563;-83
2021/03/06 00:46:39;;;;;;;18.10;10.30;;;0.30;99.90;;;;;;4934052;29;20236;-84
2021/03/06 00:49:06;;;;;;;17.30;10.82;;;0.20;99.90;;;;;;4922448;29;20212;-83
2021/03/06 00:51:33;;;;;;;17.15;10.00;;;0.20;99.90;;;;;;4927890;29;20216;-87
2021/03/06 00:54:09;;;;;;;11.73;9.90;;;0.30;99.90;;;;;;4928234;29;20216;-83
2021/03/06 00:56:36;;;;;;;11.35;9.93;;;0.20;99.90;;;;;;4927580;29;20342;-79
2021/03/06 00:59:03;;;;;;;13.18;9.73;;;0.20;99.90;;;;;;4927507;29;20192;-82
2021/03/06 01:01:30;;;;;;;12.43;10.35;;;0.20;99.90;;;;;;4944961;29;20283;-82
2021/03/06 01:03:57;;;;;;;14.35;9.35;;;0.20;99.90;;;;;;4929147;29;20268;-81
2021/03/06 01:06:23;;;;;;;13.15;10.35;;;0.10;99.90;;;;;;4944362;29;20315;-82
2021/03/06 01:08:50;;;;;;;16.58;11.25;;;0.10;99.90;;;;;;4944754;29;20216;-82
2021/03/06 01:11:17;;;;;;;17.58;10.60;;;0.10;99.90;;;;;;4923292;29;20224;-82
2021/03/06 01:13:43;;;;;;;23.05;10.43;;;0.00;99.90;;;;;;4927109;29;20296;-83
2021/03/06 01:16:10;;;;;;;13.50;10.43;;;0.10;99.90;;;;;;4944476;29;20230;-82
2021/03/06 01:18:36;;;;;;;19.67;12.38;;;0.10;99.90;;;;;;4927178;29;20201;-83
2021/03/06 01:21:04;;;;;;;18.50;12.07;;;0.10;99.90;;;;;;4947295;29;20220;-82
2021/03/06 01:23:30;;;;;;;16.80;11.57;;;0.10;99.90;;;;;;4949196;29;20357;-81
2021/03/06 01:25:57;;;;;;;16.52;10.55;;;0.10;99.90;;;;;;4944730;29;20781;-83
2021/03/06 01:28:23;;;;;;;20.60;11.40;;;0.10;99.90;;;;;;4947885;29;20204;-83
2021/03/06 01:30:50;;;;;;;17.48;11.93;;;0.00;99.90;;;;;;4948222;29;20235;-81
2021/03/06 01:33:20;;;;;;;17.67;11.10;;;0.00;99.90;;;;;;4931034;29;20260;-81
2021/03/06 01:35:47;;;;;;;15.15;12.20;;;0.00;99.90;;;;;;4941823;29;20174;-82
2021/03/06 01:38:13;;;;;;;21.25;12.38;;;0.00;99.90;;;;;;4945178;29;20209;-80
2021/03/06 01:40:39;;;;;;;18.33;12.20;;;0.00;99.90;;;;;;4940793;29;20196;-83
2021/03/06 01:43:09;;;;;;;15.82;10.70;;;-0.10;99.90;;;;;;4949040;29;20196;-82
2021/03/06 01:45:37;;;;;;;18.95;10.50;;;-0.10;99.90;;;;;;4948019;29;20248;-82
2021/03/06 01:48:04;;;;;;;19.42;11.63;;;-0.10;99.90;;;;;;4929910;29;20209;-83
2021/03/06 01:50:33;;;;;;;17.35;10.02;;;-0.10;99.90;;;;;;4946459;29;20611;-82
2021/03/06 01:53:02;;;;;;;22.90;10.35;;;-0.10;99.90;;;;;;4948264;29;20268;-82
2021/03/06 01:55:31;;;;;;;25.70;12.18;;;-0.10;99.90;;;;;;4946444;29;20294;-82
2021/03/06 01:57:59;;;;;;;13.18;10.05;;;-0.20;99.90;;;;;;4927467;29;20321;-82
2021/03/06 02:00:30;;;;;;;21.95;10.07;;;-0.20;99.90;;;;;;4928030;29;20194;-82
2021/03/06 02:02:57;;;;;;;19.25;12.00;;;-0.20;99.90;;;;;;4946202;29;20212;-82
2021/03/06 02:05:24;;;;;;;20.80;10.95;;;-0.10;99.90;;;;;;4942497;29;20201;-85
2021/03/06 02:07:52;;;;;;;13.40;9.82;;;-0.10;99.90;;;;;;4946396;28;20646;-83
2021/03/06 02:10:25;;;;;;;12.88;9.40;;;-0.10;99.90;;;;;;4930266;29;20196;-81
2021/03/06 02:13:13;;;;;;;17.05;11.57;;;-0.10;99.90;;;;;;4929770;29;20236;-82
2021/03/06 02:15:52;;;;;;;11.75;9.32;;;-0.10;99.90;;;;;;4930607;29;20284;-84
2021/03/06 02:18:42;;;;;;;12.82;9.85;;;-0.20;99.90;;;;;;4930318;29;20212;-84
2021/03/06 02:21:18;;;;;;;18.63;10.63;;;-0.20;99.90;;;;;;4929482;29;20228;-82
2021/03/06 02:24:14;;;;;;;18.80;10.15;;;-0.20;99.90;;;;;;4948099;29;20188;-84
2021/03/06 02:27:00;;;;;;;13.82;9.80;;;-0.30;99.90;;;;;;4940920;29;20323;-81
2021/03/06 02:29:56;;;;;;;13.88;9.40;;;-0.30;99.90;;;;;;4943964;29;20197;-82
2021/03/06 02:32:31;;;;;;;16.13;9.70;;;-0.30;99.90;;;;;;4945582;29;20216;-81
2021/03/06 02:35:14;;;;;;;11.75;9.45;;;-0.30;99.90;;;;;;4942770;29;20204;-81
2021/03/06 02:38:04;;;;;;;11.07;8.32;;;-0.40;99.90;;;;;;4929595;29;20235;-81
2021/03/06 02:40:32;;;;;;;11.07;9.80;;;-0.30;99.90;;;;;;4930065;29;20265;-80
2021/03/06 02:43:00;;;;;;;12.00;8.60;;;-0.40;99.90;;;;;;4946871;29;20240;-82
2021/03/06 02:45:29;;;;;;;8.98;8.07;;;-0.40;99.90;;;;;;4947423;29;20199;-82
2021/03/06 02:47:57;;;;;;;14.32;8.90;;;-0.50;99.90;;;;;;4945978;29;20224;-83
2021/03/06 02:50:23;;;;;;;11.30;8.90;;;-0.50;99.90;;;;;;4947054;29;20185;-82
2021/03/06 02:52:50;;;;;;;13.32;9.70;;;-0.60;99.90;;;;;;4946691;29;20244;-82
2021/03/06 02:55:37;;;;;;;11.70;8.18;;;-0.60;99.90;;;;;;4941923;29;20193;-83
2021/03/06 02:58:15;;;;;;;11.32;7.93;;;-0.60;99.90;;;;;;4927033;29;20209;-81
2021/03/06 03:00:53;;;;;;;10.18;8.45;;;-0.60;99.90;;;;;;4941128;29;20211;-82
2021/03/06 03:03:43;;;;;;;13.85;8.15;;;-0.60;99.90;;;;;;4948466;29;20223;-83
2021/03/06 03:06:14;;;;;;;12.18;7.43;;;-0.60;99.90;;;;;;4936229;29;20239;-82
2021/03/06 03:09:07;;;;;;;10.80;8.88;;;-0.60;99.90;;;;;;4946452;29;20216;-83
2021/03/06 03:11:59;;;;;;;16.85;10.60;;;-0.60;99.90;;;;;;4927535;29;20229;-83
2021/03/06 03:14:35;;;;;;;13.30;9.77;;;-0.70;99.90;;;;;;4925649;29;20280;-82
2021/03/06 03:17:14;;;;;;;12.10;9.13;;;-0.70;99.90;;;;;;4948158;29;20252;-82
2021/03/06 03:19:55;;;;;;;16.77;9.80;;;-0.70;99.90;;;;;;4947284;29;20193;-81
2021/03/06 03:22:25;;;;;;;23.23;9.80;;;-0.70;99.90;;;;;;4946899;29;20232;-83
2021/03/06 03:24:54;;;;;;;14.60;9.18;;;-0.70;99.90;;;;;;4932685;29;20196;-82
2021/03/06 03:27:22;;;;;;;12.10;9.40;;;-0.70;99.90;;;;;;4946484;29;20235;-80
2021/03/06 03:29:50;;;;;;;11.50;9.18;;;-0.70;99.90;;;;;;4939443;29;20193;-81
2021/03/06 03:32:17;;;;;;;14.40;9.68;;;-0.70;99.90;;;;;;4928568;29;20254;-82
2021/03/06 03:34:44;;;;;;;14.00;8.68;;;-0.80;99.90;;;;;;4944498;29;20255;-83
2021/03/06 03:37:11;;;;;;;18.40;10.10;;;-0.80;99.90;;;;;;4948151;29;20220;-82
2021/03/06 03:39:39;;;;;;;13.23;8.95;;;-0.80;99.90;;;;;;4947837;29;20244;-81
2021/03/06 03:42:06;;;;;;;16.73;10.30;;;-0.80;99.90;;;;;;4946634;29;20235;-84
2021/03/06 03:44:35;;;;;;;12.30;9.18;;;-0.90;99.90;;;;;;4947130;29;20204;-83
2021/03/06 03:47:03;;;;;;;17.80;10.15;;;-0.90;99.90;;;;;;4947239;29;20217;-81
2021/03/06 03:49:30;;;;;;;13.10;8.93;;;-1.00;99.90;;;;;;4947003;29;20617;-83
2021/03/06 03:51:59;;;;;;;15.35;8.88;;;-1.00;99.90;;;;;;4927171;29;20229;-83
2021/03/06 03:54:26;;;;;;;14.77;9.60;;;-0.90;99.90;;;;;;4929127;29;20189;-83
2021/03/06 03:56:52;;;;;;;17.48;10.40;;;-1.00;99.90;;;;;;4940966;29;20244;-83
2021/03/06 03:59:19;;;;;;;14.77;10.07;;;-1.00;99.90;;;;;;4930700;29;20199;-82
2021/03/06 04:01:46;;;;;;;11.20;8.38;;;-1.10;99.90;;;;;;4946402;28;20258;-83
2021/03/06 04:04:29;;;;;;;13.75;9.50;;;-1.10;99.90;;;;;;4928989;29;20196;-82
2021/03/06 04:06:58;;;;;;;9.25;7.50;;;-1.10;99.90;;;;;;4943298;29;20246;-82
2021/03/06 04:09:25;;;;;;;13.70;9.52;;;-1.10;99.90;;;;;;4946631;29;20689;-82
2021/03/06 04:11:52;;;;;;;10.57;8.57;;;-1.10;99.90;;;;;;4943758;29;20239;-82
2021/03/06 04:14:19;;;;;;;12.75;8.23;;;-1.10;99.90;;;;;;4928557;29;20216;-82
2021/03/06 04:16:46;;;;;;;12.40;8.65;;;-1.10;99.90;;;;;;4945026;29;20331;-83
2021/03/06 04:19:13;;;;;;;11.20;8.30;;;-1.00;99.90;;;;;;4944379;29;20547;-82
2021/03/06 04:21:39;;;;;;;9.73;8.02;;;-1.10;99.90;;;;;;4926944;29;20225;-79
2021/03/06 04:24:07;;;;;;;13.80;8.55;;;-1.10;99.90;;;;;;4939277;29;20287;-82
2021/03/06 04:26:49;;;;;;;11.00;8.57;;;-1.20;99.90;;;;;;4944196;29;20298;-82
2021/03/06 04:29:20;;;;;;;10.50;8.93;;;-1.20;99.90;;;;;;4929861;29;20228;-80
2021/03/06 04:31:48;;;;;;;15.80;10.23;;;-1.20;99.90;;;;;;4938931;29;20231;-81
2021/03/06 04:34:15;;;;;;;14.30;8.95;;;-1.20;99.90;;;;;;4924632;29;20184;-81
2021/03/06 04:36:42;;;;;;;11.68;8.60;;;-1.30;99.90;;;;;;4938946;29;20235;-81
2021/03/06 04:39:08;;;;;;;11.23;8.10;;;-1.30;99.90;;;;;;4941657;29;20189;-79
2021/03/06 04:41:35;;;;;;;11.23;8.20;;;-1.30;99.90;;;;;;4939619;29;20216;-82
2021/03/06 04:44:04;;;;;;;12.10;8.90;;;-1.30;99.90;;;;;;4935831;29;20418;-81
2021/03/06 04:46:31;;;;;;;15.07;10.00;;;-1.30;99.90;;;;;;4920904;29;20300;-81
2021/03/06 04:48:58;;;;;;;11.77;9.85;;;-1.30;99.90;;;;;;4923261;29;20582;-80
2021/03/06 04:51:25;;;;;;;12.77;10.05;;;-1.30;99.90;;;;;;4916105;29;20233;-82
2021/03/06 04:53:52;;;;;;;10.90;9.18;;;-1.20;99.90;;;;;;4936328;29;20220;-80
2021/03/06 04:56:18;;;;;;;13.48;8.60;;;-1.30;99.90;;;;;;4922420;29;20228;-82
2021/03/06 04:58:45;;;;;;;13.18;10.00;;;-1.30;99.90;;;;;;4940663;29;20543;-82
2021/03/06 05:01:11;;;;;;;13.77;10.00;;;-1.30;99.90;;;;;;4940062;29;20259;-81
2021/03/06 05:03:37;;;;;;;14.25;9.15;;;-1.30;99.90;;;;;;4940569;29;20183;-82
2021/03/06 05:06:04;;;;;;;11.73;9.10;;;-1.30;99.90;;;;;;4939318;29;20231;-81
2021/03/06 05:08:31;;;;;;;11.45;9.15;;;-1.30;99.90;;;;;;4939941;29;20209;-82
2021/03/06 05:10:57;;;;;;;16.02;8.30;;;-1.30;99.90;;;;;;4915881;29;20656;-82
2021/03/06 05:13:24;;;;;;;13.07;10.07;;;-1.30;99.90;;;;;;4934638;29;20248;-79
2021/03/06 05:15:50;;;;;;;10.32;9.20;;;-1.30;99.90;;;;;;4938914;29;20627;-80
2021/03/06 05:18:17;;;;;;;14.43;8.15;;;-1.40;99.90;;;;;;4922648;29;20216;-78
2021/03/06 05:20:43;;;;;;;11.25;8.43;;;-1.50;99.90;;;;;;4940450;29;20209;-77
2021/03/06 05:23:10;;;;;;;14.02;9.43;;;-1.50;99.90;;;;;;4941111;29;20196;-81
2021/03/06 05:25:36;;;;;;;10.98;8.95;;;-1.50;99.90;;;;;;4939948;29;20220;-82
2021/03/06 05:28:03;;;;;;;14.15;8.68;;;-1.50;99.90;;;;;;4939848;29;20225;-81
2021/03/06 05:30:29;;;;;;;14.75;8.77;;;-1.50;99.90;;;;;;4920451;29;20181;-81
2021/03/06 05:32:56;;;;;;;12.70;8.88;;;-1.50;99.90;;;;;;4921112;29;20290;-75
2021/03/06 05:35:24;;;;;;;10.23;7.90;;;-1.50;99.90;;;;;;4933760;29;20199;-82
2021/03/06 05:37:50;;;;;;;11.93;8.63;;;-1.50;99.90;;;;;;4938843;29;20548;-81
2021/03/06 05:40:17;;;;;;;12.00;7.95;;;-1.50;99.90;;;;;;4908481;29;20199;-80
2021/03/06 05:42:44;;;;;;;14.02;8.82;;;-1.50;99.90;;;;;;4938906;29;20220;-82
2021/03/06 05:45:10;;;;;;;10.90;9.43;;;-1.50;99.90;;;;;;4940698;29;20777;-81
2021/03/06 05:47:37;;;;;;;12.13;8.65;;;-1.50;99.90;;;;;;4921732;29;20236;-77
2021/03/06 05:50:08;;;;;;;12.45;9.35;;;-1.50;99.90;;;;;;4939081;29;20213;-81
2021/03/06 05:52:37;;;;;;;17.63;9.48;;;-1.50;99.90;;;;;;4941425;29;20224;-80
2021/03/06 05:55:04;;;;;;;11.55;8.32;;;-1.50;99.90;;;;;;4941485;29;20197;-80
2021/03/06 05:57:52;;;;;;;14.00;9.95;;;-1.50;99.90;;;;;;4927906;29;20236;-81
2021/03/06 06:00:20;;;;;;;12.73;9.25;;;-1.50;99.90;;;;;;4922934;29;20200;-81
2021/03/06 06:02:57;;;;;;;13.30;8.65;;;-1.50;99.90;;;;;;4918659;29;20233;-81
2021/03/06 06:05:25;;;;;;;9.55;8.48;;;-1.60;99.90;;;;;;4930628;29;20192;-82
2021/03/06 06:07:55;;;;;;;12.30;9.20;;;-1.60;99.90;;;;;;4940225;29;20232;-80
2021/03/06 06:10:25;;;;;;;13.95;9.10;;;-1.60;99.90;;;;;;4926693;29;20621;-78
2021/03/06 06:12:54;;;;;;;12.73;8.98;;;-1.60;99.90;;;;;;4940446;29;20220;-81
2021/03/06 06:15:21;;;;;;;11.70;8.65;;;-1.60;99.90;;;;;;4943532;29;20189;-82
2021/03/06 06:17:47;;;;;;;12.85;9.35;;;-1.60;99.90;;;;;;4940765;29;20523;-82
2021/03/06 06:20:18;;;;;;;12.23;8.30;;;-1.60;99.90;;;;;;4923471;29;20264;-81
2021/03/06 06:22:45;;;;;;;11.10;8.60;;;-1.60;99.90;;;;;;4937800;29;20224;-78
2021/03/06 06:25:30;;;;;;;12.93;9.52;;;-1.60;99.90;;;;;;4925011;29;20188;-82
2021/03/06 06:28:10;;;;;;;11.32;9.02;;;-1.70;99.90;;;;;;4939856;29;20231;-81
2021/03/06 06:30:37;;;;;;;13.48;9.65;;;-1.60;99.90;;;;;;4942472;29;20271;-80
2021/03/06 06:33:04;;;;;;;13.50;10.07;;;-1.60;99.90;;;;;;4943524;29;20643;-81
2021/03/06 06:35:43;;;;;;;10.48;8.75;;;-1.60;99.90;;;;;;4920200;29;20197;-81
2021/03/06 06:38:10;;;;;;;13.55;9.57;;;-1.60;99.90;;;;;;4921876;29;20217;-82
2021/03/06 06:40:38;;;;;;;12.30;10.02;;;-1.60;99.90;;;;;;4924182;29;20193;-82
2021/03/06 06:43:21;;;;;;;11.27;9.25;;;-1.50;99.90;;;;;;4942168;29;20216;-82
2021/03/06 06:45:48;;;;;;;11.80;9.88;;;-1.50;99.90;;;;;;4942410;29;20196;-81
2021/03/06 06:48:16;;;;;;;13.48;9.27;;;-1.40;99.90;;;;;;4924464;29;20216;-81
2021/03/06 06:50:42;;;;;;;15.80;10.18;;;-1.40;99.90;;;;;;4923751;29;20291;-82
2021/03/06 06:53:25;;;;;;;12.20;10.30;;;-1.30;99.90;;;;;;4927217;29;20741;-80
2021/03/06 06:55:52;;;;;;;13.07;10.40;;;-1.30;99.90;;;;;;4940327;29;20244;-78
2021/03/06 06:58:39;;;;;;;16.20;11.23;;;-1.30;99.90;;;;;;4940252;29;20208;-81
2021/03/06 07:01:30;;;;;;;13.40;9.23;;;-1.10;99.90;;;;;;4940834;29;20228;-79
2021/03/06 07:04:05;;;;;;;14.68;10.45;;;-1.00;99.90;;;;;;4932340;29;20197;-79
2021/03/06 07:06:33;;;;;;;15.02;10.15;;;-0.90;99.90;;;;;;4925328;29;20299;-80
2021/03/06 07:09:11;;;;;;;11.27;9.80;;;-0.90;99.90;;;;;;4926717;29;20234;-81
2021/03/06 07:11:38;;;;;;;16.02;10.48;;;-0.80;99.90;;;;;;4925337;29;20262;-81
2021/03/06 07:14:06;;;;;;;15.90;9.93;;;-0.70;99.90;;;;;;4930265;29;20189;-81
2021/03/06 07:16:56;;;;;;;16.02;10.80;;;-0.60;99.90;;;;;;4934863;29;20228;-82
2021/03/06 07:19:30;;;;;;;12.82;9.95;;;-0.50;99.90;;;;;;4933664;29;20201;-79
2021/03/06 07:21:58;;;;;;;13.50;10.60;;;-0.30;99.90;;;;;;4940914;29;20228;-76
2021/03/06 07:24:26;;;;;;;21.60;11.10;;;-0.30;99.90;;;;;;4940331;29;20264;-81
2021/03/06 07:26:53;;;;;;;12.68;11.02;;;-0.30;99.90;;;;;;4919679;29;20260;-79
2021/03/06 07:29:23;;;;;;;14.50;12.48;;;-0.20;99.90;;;;;;4919196;29;20272;-79
2021/03/06 07:31:52;;;;;;;13.40;10.82;;;0.00;99.90;;;;;;4918933;29;20221;-82
2021/03/06 07:34:30;;;;;;;14.40;11.13;;;0.00;99.90;;;;;;4921673;29;20608;-80
2021/03/06 07:37:01;;;;;;;10.13;9.13;;;0.30;99.90;;;;;;4922564;29;20228;-79
2021/03/06 07:39:42;;;;;;;13.20;10.40;;;0.50;99.90;;;;;;4938314;29;20199;-78
2021/03/06 07:42:25;;;;;;;18.83;11.18;;;0.60;99.90;;;;;;4924748;29;20224;-81
2021/03/06 07:45:03;;;;;;;13.18;10.23;;;0.60;99.90;;;;;;4922884;29;20196;-79
2021/03/06 07:47:38;;;;;;;10.80;9.73;;;0.70;99.90;;;;;;4915866;29;20306;-80
2021/03/06 07:50:25;;;;;;;12.23;10.93;;;0.70;99.90;;;;;;4928123;29;20193;-82
2021/03/06 07:52:53;;;;;;;11.32;10.23;;;0.80;99.90;;;;;;4935055;29;20208;-79
2021/03/06 07:55:22;;;;;;;13.98;11.52;;;1.10;99.90;;;;;;4930389;29;20220;-78
2021/03/06 07:58:11;;;;;;;19.20;12.52;;;1.10;99.90;;;;;;4927200;29;20251;-80
2021/03/06 08:00:42;;;;;;;14.73;12.32;;;1.20;99.90;;;;;;4944430;29;20184;-81
2021/03/06 08:03:27;;;;;;;16.15;11.23;;;1.40;99.90;;;;;;4944566;29;20192;-80
2021/03/06 08:06:17;;;;;;;16.95;12.30;;;1.50;99.90;;;;;;4942033;29;20251;-81
2021/03/06 08:08:47;;;;;;;15.13;11.88;;;1.60;99.90;;;;;;4943604;29;20299;-80
2021/03/06 08:11:25;;;;;;;13.80;12.30;;;1.70;99.90;;;;;;4942242;29;20224;-81
2021/03/06 08:13:59;;;;;;;17.85;12.63;;;1.70;99.90;;;;;;4942470;29;20192;-79
2021/03/06 08:16:27;;;;;;;13.48;10.88;;;1.70;99.90;;;;;;4907704;29;20250;-80
2021/03/06 08:19:16;;;;;;;13.73;11.93;;;1.80;99.90;;;;;;4925851;29;20545;-80
2021/03/06 08:21:50;;;;;;;12.52;11.32;;;1.90;99.90;;;;;;4924109;29;20217;-82
2021/03/06 08:24:23;;;;;;;14.38;10.82;;;1.90;99.90;;;;;;4932171;29;20203;-79
2021/03/06 08:27:03;;;;;;;13.20;11.45;;;2.00;99.90;;;;;;4907133;29;20264;-81
2021/03/06 08:29:49;;;;;;;16.48;12.25;;;2.00;99.90;;;;;;4915150;29;20205;-79
2021/03/06 08:32:30;;;;;;;13.70;11.63;;;2.00;99.90;;;;;;4942009;29;20231;-81
2021/03/06 08:35:20;;;;;;;13.73;12.40;;;2.10;99.90;;;;;;4922722;29;20203;-82
2021/03/06 08:37:49;;;;;;;13.15;11.75;;;2.20;99.90;;;;;;4923329;29;20265;-79
2021/03/06 08:40:23;;;;;;;15.90;11.20;;;2.40;99.90;;;;;;4938194;29;20224;-81
2021/03/06 08:42:54;;;;;;;16.98;12.07;;;2.50;99.90;;;;;;4921605;29;20698;-82
2021/03/06 08:45:33;;;;;;;13.20;11.85;;;2.60;99.90;;;;;;4923584;29;20200;-81
2021/03/06 08:48:06;;;;;;;11.95;10.75;;;2.60;99.90;;;;;;4921261;29;20278;-80
2021/03/06 08:50:35;;;;;;;15.55;12.55;;;2.60;99.90;;;;;;4911059;29;20197;-79
2021/03/06 08:53:07;;;;;;;13.90;12.50;;;2.70;99.90;;;;;;4940840;29;20189;-78
2021/03/06 08:55:38;;;;;;;12.80;11.23;;;2.80;99.90;;;;;;4919617;29;20192;-78
2021/03/06 08:58:09;;;;;;;11.82;10.63;;;2.90;99.90;;;;;;4919307;29;20216;-79
2021/03/06 09:00:40;;;;;;;16.23;12.65;;;3.00;99.90;;;;;;4937600;29;20192;-81
2021/03/06 09:03:21;;;;;;;15.75;11.50;;;3.00;99.90;;;;;;4938608;29;20227;-78
2021/03/06 09:06:05;;;;;;;13.18;11.85;;;3.10;99.90;;;;;;4911175;29;20205;-81
2021/03/06 09:08:32;;;;;;;13.45;11.73;;;3.00;99.90;;;;;;4935194;29;20204;-79
2021/03/06 09:10:59;;;;;;;12.57;10.43;;;3.10;99.90;;;;;;4923591;29;20238;-80
2021/03/06 09:13:33;;;;;;;13.55;10.80;;;3.10;99.90;;;;;;4928269;29;20672;-78
2021/03/06 09:16:03;;;;;;;13.57;9.40;;;3.10;99.90;;;;;;4919196;29;20672;-78
2021/03/06 09:18:39;;;;;;;11.18;9.95;;;3.20;98.80;;;;;;4940979;29;20197;-80
2021/03/06 09:21:15;;;;;;;14.10;10.55;;;3.20;99.90;;;;;;4943137;29;20228;-80
2021/03/06 09:23:44;;;;;;;10.68;8.85;;;3.30;99.70;;;;;;4945476;29;20233;-80
2021/03/06 09:26:18;;;;;;;11.52;9.75;;;3.40;96.40;;;;;;4945195;29;20247;-79
2021/03/06 09:28:46;;;;;;;14.73;10.90;;;3.40;98.90;;;;;;4945682;29;20236;-80
2021/03/06 09:31:20;;;;;;;11.48;9.43;;;3.40;99.40;;;;;;4929297;29;20214;-79
2021/03/06 09:33:48;;;;;;;14.65;10.15;;;3.60;99.90;;;;;;4945998;29;20200;-80
2021/03/06 09:36:16;;;;;;;11.50;8.65;;;3.60;99.80;;;;;;4943241;29;20224;-78
2021/03/06 09:39:00;;;;;;;12.40;10.52;;;3.80;99.90;;;;;;4940691;29;20189;-81
2021/03/06 09:41:33;;;;;;;12.18;9.88;;;3.80;99.90;;;;;;4943504;29;20248;-79
2021/03/06 09:44:02;;;;;;;11.13;9.93;;;3.90;99.40;;;;;;4925746;29;20219;-81
2021/03/06 09:46:31;;;;;;;10.45;9.35;;;3.90;99.00;;;;;;4921659;29;20229;-78
2021/03/06 09:49:04;;;;;;;10.45;9.35;;;3.90;98.80;;;;;;4927978;29;20220;-80
2021/03/06 09:51:42;;;;;;;11.73;10.35;;;4.10;98.50;;;;;;4942014;29;20251;-79
2021/03/06 09:54:09;;;;;;;13.95;9.52;;;4.30;98.90;;;;;;4927496;29;20192;-81
2021/03/06 09:56:53;;;;;;;9.88;8.98;;;4.40;98.30;;;;;;4943985;29;20227;-81
2021/03/06 09:59:20;;;;;;;9.20;8.38;;;4.50;96.70;;;;;;4944596;29;20231;-78
2021/03/06 10:01:47;;;;;;;10.40;8.77;;;4.70;96.20;;;;;;4944040;29;20216;-82
2021/03/06 10:04:19;;;;;;;10.80;9.13;;;4.90;95.20;;;;;;4946654;29;20193;-81
2021/03/06 10:06:54;;;;;;;9.10;8.13;;;5.00;92.90;;;;;;4947422;29;20240;-82
2021/03/06 10:09:22;;;;;;;10.40;9.25;;;5.20;93.60;;;;;;4931242;29;20304;-80
2021/03/06 10:11:52;;;;;;;11.73;9.18;;;5.50;93.50;;;;;;4930396;29;20753;-83
2021/03/06 10:14:24;;;;;;;10.35;9.35;;;5.50;92.90;;;;;;4943619;29;20612;-81
2021/03/06 10:16:53;;;;;;;8.52;7.57;;;5.60;92.80;;;;;;4944231;29;20301;-80
2021/03/06 10:19:23;;;;;;;10.02;9.02;;;5.80;92.20;;;;;;4938261;29;20297;-79
2021/03/06 10:22:09;;;;;;;8.85;7.95;;;5.80;91.00;;;;;;4932545;29;20219;-80
2021/03/06 10:24:55;;;;;;;8.75;7.50;;;5.80;91.30;;;;;;4927050;29;20189;-79
2021/03/06 10:27:44;;;;;;;9.48;7.78;;;5.90;91.90;;;;;;4915635;29;20231;-80
2021/03/06 10:30:23;;;;;;;11.18;7.45;;;5.80;90.20;;;;;;4941941;29;20244;-81
2021/03/06 10:33:01;;;;;;;8.25;6.97;;;5.90;90.00;;;;;;4942501;29;20280;-82
2021/03/06 10:35:37;;;;;;;7.97;6.93;;;5.90;88.40;;;;;;4937284;29;20192;-82
2021/03/06 10:38:12;;;;;;;8.50;7.28;;;5.90;86.30;;;;;;4927841;29;20252;-78
2021/03/06 10:40:50;;;;;;;8.52;7.03;;;5.80;85.00;;;;;;4926014;29;20202;-80
2021/03/06 10:43:41;;;;;;;8.50;7.07;;;5.80;84.70;;;;;;4927962;29;20192;-79
2021/03/06 10:46:11;;;;;;;9.55;7.20;;;5.80;84.50;;;;;;4923313;29;20225;-82
2021/03/06 10:48:39;;;;;;;7.55;6.68;;;5.70;85.70;;;;;;4934414;29;20679;-78
2021/03/06 10:51:07;;;;;;;7.25;6.13;;;5.80;86.80;;;;;;4942482;29;20221;-81
2021/03/06 10:53:34;;;;;;;6.90;6.20;;;5.90;84.50;;;;;;4943117;29;20185;-80
2021/03/06 10:56:21;;;;;;;7.88;6.28;;;6.00;84.90;;;;;;4938370;29;20220;-80
2021/03/06 10:58:48;;;;;;;6.60;6.00;;;6.00;85.10;;;;;;4924469;29;20252;-79
2021/03/06 11:01:48;;;;;;;7.05;6.35;;;6.00;82.40;;;;;;4921929;29;20253;-80
2021/03/06 11:04:35;;;;;;;9.10;5.60;;;6.10;84.30;;;;;;4926055;29;20203;-80
2021/03/06 11:07:11;;;;;;;6.45;5.60;;;6.20;82.80;;;;;;4920525;29;20690;-80
2021/03/06 11:09:39;;;;;;;8.07;6.38;;;6.10;83.10;;;;;;4942631;29;20244;-80
2021/03/06 11:12:18;;;;;;;6.38;5.80;;;6.20;85.40;;;;;;4937922;29;20232;-82
2021/03/06 11:14:45;;;;;;;6.55;5.30;;;6.30;81.10;;;;;;4921852;29;20524;-81
2021/03/06 11:17:15;;;;;;;5.57;5.07;;;6.30;80.60;;;;;;4943442;29;20224;-80
2021/03/06 11:19:45;;;;;;;6.03;5.43;;;6.30;81.10;;;;;;4923738;29;20206;-80
2021/03/06 11:22:12;;;;;;;6.90;4.97;;;6.40;77.30;;;;;;4942724;29;20244;-82
2021/03/06 11:24:38;;;;;;;5.65;5.05;;;6.40;74.40;;;;;;4941377;29;20185;-84
2021/03/06 11:27:05;;;;;;;6.18;5.57;;;6.40;78.30;;;;;;4942609;29;20505;-82
2021/03/06 11:29:32;;;;;;;6.40;4.47;;;6.50;79.20;;;;;;4928103;29;20701;-81
2021/03/06 11:31:58;;;;;;;6.18;5.10;;;6.50;77.30;;;;;;4922524;29;20228;-80
2021/03/06 11:34:25;;;;;;;6.18;3.83;;;6.60;74.70;;;;;;4932352;29;20241;-82
2021/03/06 11:36:53;;;;;;;5.55;4.28;;;6.60;70.50;;;;;;4925235;29;20232;-80
2021/03/06 11:39:19;;;;;;;5.03;4.20;;;6.60;70.00;;;;;;4923853;29;20193;-81
2021/03/06 11:41:48;;;;;;;7.80;4.68;;;6.70;71.40;;;;;;4933506;29;20240;-80
2021/03/06 11:44:17;;;;;;;5.50;5.00;;;6.70;70.90;;;;;;4936120;29;20201;-83
2021/03/06 11:46:43;;;;;;;5.55;4.80;;;6.70;71.70;;;;;;4921476;29;20746;-82
2021/03/06 11:49:10;;;;;;;7.88;5.30;;;6.70;69.20;;;;;;4930031;29;20220;-81
2021/03/06 11:51:36;;;;;;;9.23;5.05;;;6.70;70.70;;;;;;4917603;29;20217;-80
2021/03/06 11:54:05;;;;;;;6.70;5.60;;;6.70;72.60;;;;;;4923195;29;20193;-81
2021/03/06 11:56:31;;;;;;;8.18;6.63;;;6.60;70.70;;;;;;4932984;29;20275;-81
2021/03/06 11:58:58;;;;;;;5.95;5.35;;;6.60;71.60;;;;;;4920517;29;20196;-81
2021/03/06 12:01:24;;;;;;;7.38;6.00;;;6.60;72.70;;;;;;4919700;29;20221;-81
2021/03/06 12:03:53;;;;;;;6.72;5.65;;;6.60;69.80;;;;;;4915947;29;20308;-81
2021/03/06 12:06:20;;;;;;;7.70;5.68;;;6.60;70.00;;;;;;4921038;29;20259;-81
2021/03/06 12:08:46;;;;;;;8.77;6.47;;;6.80;71.00;;;;;;4938317;29;20305;-85
2021/03/06 12:11:13;;;;;;;10.23;7.22;;;6.80;70.70;;;;;;4939436;29;20230;-80
2021/03/06 12:13:39;;;;;;;9.50;6.97;;;6.90;72.40;;;;;;4923762;29;20193;-82
2021/03/06 12:16:06;;;;;;;7.28;6.57;;;7.00;70.00;;;;;;4923208;29;20586;-81
2021/03/06 12:18:32;;;;;;;11.68;6.43;;;6.90;67.60;;;;;;4941506;29;20195;-80
2021/03/06 12:20:59;;;;;;;7.95;7.10;;;6.90;67.80;;;;;;4929800;29;20305;-83
2021/03/06 12:23:26;;;;;;;6.70;6.05;;;6.90;67.90;;;;;;4921634;29;20221;-83
2021/03/06 12:25:53;;;;;;;6.78;6.18;;;6.90;66.00;;;;;;4922622;29;20248;-81
2021/03/06 12:28:19;;;;;;;6.22;5.63;;;7.00;68.30;;;;;;4923612;29;20722;-81
2021/03/06 12:30:46;;;;;;;7.32;6.63;;;7.00;66.70;;;;;;4919537;29;20213;-80
2021/03/06 12:33:12;;;;;;;8.50;6.88;;;7.00;65.10;;;;;;4921120;29;20197;-84
2021/03/06 12:35:41;;;;;;;8.48;6.80;;;6.90;67.00;;;;;;4926030;29;20259;-81
2021/03/06 12:38:08;;;;;;;7.47;5.60;;;6.90;70.20;;;;;;4933298;29;20288;-81
2021/03/06 12:40:34;;;;;;;7.35;6.18;;;6.80;68.90;;;;;;4948662;29;20590;-82
2021/03/06 12:43:01;;;;;;;6.88;5.72;;;6.80;70.70;;;;;;4948986;29;20196;-83
2021/03/06 12:45:29;;;;;;;8.25;5.55;;;6.80;71.40;;;;;;4932470;29;20188;-82
2021/03/06 12:47:55;;;;;;;6.47;5.88;;;6.90;70.80;;;;;;4947135;29;20284;-78
2021/03/06 12:50:22;;;;;;;7.78;6.97;;;6.90;71.40;;;;;;4947145;29;20240;-84
2021/03/06 12:52:48;;;;;;;6.53;5.53;;;6.90;70.90;;;;;;4926632;29;20224;-80
2021/03/06 12:55:15;;;;;;;5.88;5.38;;;7.00;68.50;;;;;;4926825;29;20212;-83
2021/03/06 12:57:42;;;;;;;6.45;5.10;;;7.00;70.40;;;;;;4930960;29;20272;-83
2021/03/06 13:00:10;;;;;;;7.18;4.68;;;6.90;68.90;;;;;;4929945;29;20199;-81